Terminal Aerodrome Forecast
Issued by NWS

Current Version | Previous Version | Text Only | Print | Product List | Glossary On
Versions: 1 2 3 4 5 6 7 8 9 10 11 12 13
000
FTUS46 KMFR 040223 AAA
TAFLMT
TAF AMD
KLMT 040223Z 0402/0424 30014KT P6SM SCT100 SCT250
     FM040500 VRB05KT P6SM SCT200
     FM042300 27007KT P6SM FEW250=

USA.gov is the U.S. government's official web portal to all federal, state and local government web resources and services.